createdAt,value
2023-04-26T00:00:19.664Z,101684.25
2023-04-26T00:03:05.162Z,101690.44
2023-04-26T00:05:50.737Z,101695.94
2023-04-26T00:08:36.640Z,101693.44
2023-04-26T00:11:23.016Z,101691.06
2023-04-26T00:14:08.230Z,101686.94
2023-04-26T00:16:53.343Z,101681.91
2023-04-26T00:19:39.681Z,101688.06
2023-04-26T00:22:25.586Z,101677.72
2023-04-26T00:25:11.188Z,101657.44
2023-04-26T00:27:56.827Z,101665.88
2023-04-26T00:30:47.645Z,101661.59
2023-04-26T00:33:32.743Z,101642.72
2023-04-26T00:36:19.347Z,101630.66
2023-04-26T00:39:04.624Z,101652.66
2023-04-26T00:41:49.954Z,101643.16
2023-04-26T00:44:34.964Z,101652.69
2023-04-26T00:47:20.284Z,101644.03
2023-04-26T00:50:07.367Z,101638.09
2023-04-26T00:52:52.746Z,101632.94
2023-04-26T00:55:38.095Z,101625.50
2023-04-26T00:58:22.948Z,101634.91
2023-04-26T01:01:08.460Z,101618.75
2023-04-26T01:03:54.178Z,101634.06
2023-04-26T01:06:40.172Z,101613.75
2023-04-26T01:09:25.701Z,101634.22
2023-04-26T01:12:11.480Z,101642.97
2023-04-26T01:14:57.370Z,101645.56
2023-04-26T01:17:45.943Z,101647.28
2023-04-26T01:20:31.144Z,101644.78
2023-04-26T01:23:16.968Z,101628.63
2023-04-26T01:26:02.400Z,101635.44
2023-04-26T01:28:49.605Z,101643.25
2023-04-26T01:31:34.808Z,101639.00
2023-04-26T01:34:20.082Z,101634.66
2023-04-26T01:37:05.181Z,101631.31
2023-04-26T01:39:50.357Z,101641.72
2023-04-26T01:42:35.702Z,101642.53
2023-04-26T01:45:20.541Z,101631.44
2023-04-26T01:48:06.058Z,101616.28
2023-04-26T01:50:51.304Z,101633.25
2023-04-26T01:53:36.543Z,101619.41
2023-04-26T01:56:24.409Z,101613.59
2023-04-26T01:59:09.284Z,101632.50
2023-04-26T02:01:54.324Z,101603.34
2023-04-26T02:04:39.643Z,101603.31
2023-04-26T02:07:24.901Z,101616.00
2023-04-26T02:10:09.946Z,101590.31
2023-04-26T02:12:55.242Z,101598.72
2023-04-26T02:15:40.794Z,101601.25
2023-04-26T02:18:26.785Z,101608.94
2023-04-26T02:21:12.327Z,101601.31
2023-04-26T02:23:57.525Z,101610.56
2023-04-26T02:26:42.685Z,101614.94
2023-04-26T02:29:42.128Z,101614.00
2023-04-26T02:32:27.662Z,101618.34
2023-04-26T02:35:12.781Z,101609.94
2023-04-26T02:37:57.866Z,101594.47
2023-04-26T02:40:42.856Z,101614.13
2023-04-26T02:43:28.184Z,101603.03
2023-04-26T02:46:16.746Z,101611.34
2023-04-26T02:49:02.120Z,101611.25
2023-04-26T02:51:47.070Z,101601.25
2023-04-26T02:54:31.940Z,101618.03
2023-04-26T02:57:16.923Z,101598.50
2023-04-26T03:00:02.093Z,101602.75
2023-04-26T03:02:47.500Z,101606.41
2023-04-26T03:05:32.679Z,101579.03
2023-04-26T03:08:17.836Z,101600.38
2023-04-26T03:11:03.331Z,101595.19
2023-04-26T03:13:48.346Z,101595.16
2023-04-26T03:16:41.261Z,101606.34
2023-04-26T03:19:29.902Z,101594.53
2023-04-26T03:22:16.313Z,101614.28
2023-04-26T03:25:01.426Z,101621.03
2023-04-26T03:27:46.879Z,101608.94
2023-04-26T03:30:32.126Z,101612.44
2023-04-26T03:33:17.537Z,101607.22
2023-04-26T03:36:02.823Z,101604.41
2023-04-26T03:38:47.754Z,101606.09
2023-04-26T03:41:33.584Z,101572.69
2023-04-26T03:44:18.744Z,101586.94
2023-04-26T03:47:05.232Z,101593.88
2023-04-26T03:49:50.492Z,101594.63
2023-04-26T03:52:35.865Z,101585.19
2023-04-26T03:55:20.940Z,101587.72
2023-04-26T03:58:07.993Z,101590.25
2023-04-26T04:00:57.589Z,101567.22
2023-04-26T04:03:43.171Z,101564.59
2023-04-26T04:06:28.654Z,101563.81
2023-04-26T04:09:13.644Z,101565.56
2023-04-26T04:11:59.055Z,101578.31
2023-04-26T04:14:43.904Z,101584.34
2023-04-26T04:17:29.037Z,101581.88
2023-04-26T04:20:14.118Z,101576.66
2023-04-26T04:22:59.471Z,101574.78
2023-04-26T04:25:45.525Z,101568.75
2023-04-26T04:28:30.552Z,101562.63
2023-04-26T04:31:15.819Z,101555.91
2023-04-26T04:34:01.433Z,101563.50
2023-04-26T04:36:46.340Z,101549.81
2023-04-26T04:39:31.434Z,101558.19
2023-04-26T04:42:16.614Z,101559.13
2023-04-26T04:45:01.630Z,101547.16
2023-04-26T04:47:46.611Z,101565.16
2023-04-26T04:50:32.202Z,101557.53
2023-04-26T04:53:17.449Z,101557.31
2023-04-26T04:56:02.720Z,101553.91
2023-04-26T04:58:47.771Z,101549.63
2023-04-26T05:01:33.196Z,101558.28
2023-04-26T05:04:18.652Z,101554.13
2023-04-26T05:07:03.877Z,101540.31
2023-04-26T05:09:49.065Z,101559.94
2023-04-26T05:12:35.316Z,101560.91
2023-04-26T05:15:20.491Z,101556.63
2023-04-26T05:18:05.653Z,101524.28
2023-04-26T05:20:51.018Z,101554.00
2023-04-26T05:23:36.406Z,101554.00
2023-04-26T05:26:21.687Z,101539.34
2023-04-26T05:29:06.939Z,101548.72
2023-04-26T05:31:51.993Z,101557.25
2023-04-26T05:34:38.583Z,101559.78
2023-04-26T05:37:23.523Z,101552.00
2023-04-26T05:40:09.154Z,101560.63
2023-04-26T05:42:54.255Z,101557.84
2023-04-26T05:45:39.714Z,101564.69
2023-04-26T05:48:25.331Z,101573.19
2023-04-26T05:51:10.286Z,101568.00
2023-04-26T05:53:55.757Z,101580.88
2023-04-26T05:56:40.810Z,101580.88
2023-04-26T05:59:25.996Z,101588.63
2023-04-26T06:02:12.064Z,101585.88
2023-04-26T06:04:57.544Z,101583.22
2023-04-26T06:07:44.069Z,101587.28
2023-04-26T06:10:29.326Z,101593.38
2023-04-26T06:13:14.575Z,101604.44
2023-04-26T06:15:59.864Z,101605.47
2023-04-26T06:18:45.084Z,101607.03
2023-04-26T06:21:30.103Z,101595.84
2023-04-26T06:24:15.523Z,101603.28
2023-04-26T06:27:00.496Z,101598.75
2023-04-26T06:29:46.084Z,101595.25
2023-04-26T06:32:31.243Z,101605.22
2023-04-26T06:35:16.596Z,101601.69
2023-04-26T06:38:02.160Z,101614.47
2023-04-26T06:40:47.068Z,101604.84
2023-04-26T06:43:32.083Z,101611.00
2023-04-26T06:46:17.311Z,101609.84
2023-04-26T06:49:02.418Z,101601.16
2023-04-26T06:51:47.591Z,101597.50
2023-04-26T06:54:34.623Z,101575.19
2023-04-26T06:57:21.527Z,101590.44
2023-04-26T07:00:07.568Z,101585.16
2023-04-26T07:02:52.744Z,101575.75
2023-04-26T07:05:39.584Z,101560.19
2023-04-26T07:08:24.677Z,101571.22
2023-04-26T07:11:11.400Z,101579.59
2023-04-26T07:13:57.092Z,101578.63
2023-04-26T07:16:44.726Z,101550.09
2023-04-26T07:19:29.910Z,101571.31
2023-04-26T07:22:14.887Z,101568.56
2023-04-26T07:25:00.135Z,101569.91
2023-04-26T07:27:45.924Z,101561.38
2023-04-26T07:30:32.494Z,101552.22
2023-04-26T07:33:17.775Z,101571.06
2023-04-26T07:36:03.052Z,101562.34
2023-04-26T07:38:48.149Z,101572.47
2023-04-26T07:41:33.359Z,101559.47
2023-04-26T07:44:18.505Z,101556.66
2023-04-26T07:47:03.590Z,101562.53
2023-04-26T07:49:53.223Z,101568.50
2023-04-26T07:52:38.986Z,101566.44
2023-04-26T07:55:24.765Z,101576.84
2023-04-26T07:58:12.534Z,101570.59
2023-04-26T08:00:57.506Z,101572.09
2023-04-26T08:03:43.135Z,101565.78
2023-04-26T08:06:29.294Z,101570.78
2023-04-26T08:09:14.591Z,101577.53
2023-04-26T08:12:00.224Z,101570.50
2023-04-26T08:14:46.364Z,101577.28
2023-04-26T08:17:32.253Z,101574.56
2023-04-26T08:20:18.082Z,101578.53
2023-04-26T08:23:03.150Z,101556.06
2023-04-26T08:25:49.676Z,101579.06
2023-04-26T08:28:35.778Z,101574.44
2023-04-26T08:31:22.898Z,101575.84
2023-04-26T08:34:11.421Z,101563.50
2023-04-26T08:36:56.803Z,101571.84
2023-04-26T08:39:41.961Z,101566.63
2023-04-26T08:42:28.287Z,101569.09
2023-04-26T08:45:16.299Z,101572.44
2023-04-26T08:48:09.244Z,101563.69
2023-04-26T08:50:55.502Z,101569.56
2023-04-26T08:53:41.746Z,101569.34
2023-04-26T08:56:28.347Z,101564.66
2023-04-26T08:59:15.013Z,101562.41
2023-04-26T09:02:03.201Z,101571.72
2023-04-26T09:04:49.908Z,101581.19
2023-04-26T09:07:44.379Z,101575.03
2023-04-26T09:10:30.417Z,101580.09
2023-04-26T09:13:15.598Z,101591.13
2023-04-26T09:16:03.415Z,101587.75
2023-04-26T09:18:57.131Z,101568.63
2023-04-26T09:21:48.434Z,101570.44
2023-04-26T09:24:52.060Z,101596.91
2023-04-26T09:27:38.937Z,101594.41
2023-04-26T09:30:24.422Z,101593.22
2023-04-26T09:33:09.734Z,101590.88
2023-04-26T09:35:54.787Z,101589.69
2023-04-26T09:38:43.437Z,101591.88
2023-04-26T09:41:47.196Z,101571.19
2023-04-26T09:44:32.927Z,101580.16
2023-04-26T09:47:18.205Z,101590.25
2023-04-26T09:50:04.054Z,101582.25
2023-04-26T09:52:48.955Z,101568.81
2023-04-26T09:55:35.849Z,101563.59
2023-04-26T09:58:22.240Z,101570.84
2023-04-26T10:01:08.853Z,101574.38
2023-04-26T10:03:56.899Z,101551.53
2023-04-26T10:06:41.989Z,101574.94
2023-04-26T10:09:27.539Z,101560.84
2023-04-26T10:12:13.924Z,101567.28
2023-04-26T10:14:58.936Z,101570.69
2023-04-26T10:17:44.238Z,101568.56
2023-04-26T10:20:29.830Z,101561.38
2023-04-26T10:23:25.699Z,101565.69
2023-04-26T10:26:52.814Z,101577.59
2023-04-26T10:29:56.516Z,101571.88
2023-04-26T10:32:57.209Z,101548.63
2023-04-26T10:36:05.375Z,101550.38
2023-04-26T10:39:23.332Z,101550.63
2023-04-26T10:42:28.065Z,101534.50
2023-04-26T10:45:27.924Z,101539.22
2023-04-26T10:48:19.628Z,101540.78
2023-04-26T10:51:05.468Z,101543.53
2023-04-26T10:53:52.286Z,101541.69
2023-04-26T10:56:37.805Z,101547.59
2023-04-26T10:59:39.748Z,101541.69
2023-04-26T11:02:52.403Z,101543.72
2023-04-26T11:05:47.280Z,101533.22
2023-04-26T11:08:32.747Z,101536.09
2023-04-26T11:11:19.516Z,101526.56
2023-04-26T11:14:05.691Z,101520.09
2023-04-26T11:16:50.973Z,101527.88
2023-04-26T11:19:36.248Z,101537.06
2023-04-26T11:22:24.673Z,101530.28
2023-04-26T11:25:13.207Z,101533.34
2023-04-26T11:28:02.769Z,101532.00
2023-04-26T11:30:49.991Z,101540.31
2023-04-26T11:33:35.474Z,101538.91
2023-04-26T11:36:22.691Z,101538.16
2023-04-26T11:39:08.094Z,101543.91
2023-04-26T11:42:05.528Z,101524.31
2023-04-26T11:44:52.251Z,101531.88
2023-04-26T11:47:38.232Z,101531.41
2023-04-26T11:50:26.802Z,101514.25
2023-04-26T11:53:12.544Z,101528.81
2023-04-26T11:55:58.043Z,101518.13
2023-04-26T11:58:51.689Z,101515.50
2023-04-26T12:01:37.158Z,101518.50
2023-04-26T12:04:30.851Z,101519.53
2023-04-26T12:07:19.584Z,101525.28
2023-04-26T12:10:19.251Z,101516.94
2023-04-26T12:13:04.215Z,101521.38
2023-04-26T12:15:51.281Z,101522.72
2023-04-26T12:18:36.353Z,101524.31
2023-04-26T12:21:21.924Z,101533.88
2023-04-26T12:24:07.055Z,101512.22
2023-04-26T12:26:52.502Z,101527.72
2023-04-26T12:29:37.562Z,101521.25
2023-04-26T12:32:22.887Z,101524.38
2023-04-26T12:35:09.098Z,101527.44
2023-04-26T12:37:56.852Z,101510.09
2023-04-26T12:40:42.551Z,101521.16
2023-04-26T12:43:27.678Z,101507.69
2023-04-26T12:46:12.887Z,101514.09
2023-04-26T12:48:58.176Z,101517.91
2023-04-26T12:51:43.473Z,101514.13
2023-04-26T12:54:28.497Z,101503.28
2023-04-26T12:57:14.274Z,101500.44
2023-04-26T12:59:59.415Z,101505.91
2023-04-26T13:02:44.862Z,101515.25
2023-04-26T13:05:30.591Z,101510.97
2023-04-26T13:08:16.068Z,101489.28
2023-04-26T13:11:01.714Z,101502.38
2023-04-26T13:13:47.020Z,101510.16
2023-04-26T13:16:33.277Z,101515.22
2023-04-26T13:19:18.578Z,101515.22
2023-04-26T13:22:04.798Z,101498.50
2023-04-26T13:24:49.787Z,101500.00
2023-04-26T13:27:34.914Z,101489.78
2023-04-26T13:30:20.113Z,101493.53
2023-04-26T13:33:05.490Z,101489.13
2023-04-26T13:35:50.859Z,101492.94
2023-04-26T13:38:36.144Z,101495.72
2023-04-26T13:41:22.430Z,101484.72
2023-04-26T13:44:07.615Z,101505.53
2023-04-26T13:46:55.525Z,101493.72
2023-04-26T13:49:41.723Z,101502.69
2023-04-26T13:52:27.952Z,101488.22
2023-04-26T13:55:14.320Z,101468.63
2023-04-26T13:57:59.468Z,101472.75
2023-04-26T14:00:44.613Z,101489.97
2023-04-26T14:03:29.864Z,101482.63
2023-04-26T14:06:15.420Z,101478.22
2023-04-26T14:09:00.971Z,101474.84
2023-04-26T14:11:49.446Z,101473.94
2023-04-26T14:14:39.111Z,101473.34
2023-04-26T14:17:25.258Z,101466.00
2023-04-26T14:20:11.102Z,101474.44
2023-04-26T14:22:56.258Z,101456.50
2023-04-26T14:25:41.571Z,101461.69
2023-04-26T14:28:26.659Z,101468.31
2023-04-26T14:31:12.808Z,101477.69
2023-04-26T14:33:57.798Z,101467.22
2023-04-26T14:36:42.953Z,101470.56
2023-04-26T14:39:28.039Z,101468.91
2023-04-26T14:42:13.173Z,101458.59
2023-04-26T14:45:01.202Z,101457.19
2023-04-26T14:47:46.452Z,101457.22
2023-04-26T14:50:31.313Z,101450.78
2023-04-26T14:53:16.800Z,101458.44
2023-04-26T14:56:02.133Z,101448.63
2023-04-26T14:58:47.431Z,101439.72
2023-04-26T15:01:32.694Z,101457.03
2023-04-26T15:04:18.088Z,101454.63
2023-04-26T15:07:04.325Z,101447.66
2023-04-26T15:09:51.002Z,101443.38
2023-04-26T15:12:36.506Z,101454.38
2023-04-26T15:15:22.628Z,101458.03
2023-04-26T15:18:07.868Z,101453.53
2023-04-26T15:20:53.278Z,101449.59
2023-04-26T15:23:38.481Z,101453.53
2023-04-26T15:26:23.433Z,101448.69
2023-04-26T15:29:08.401Z,101448.03
2023-04-26T15:31:53.888Z,101431.50
2023-04-26T15:34:40.774Z,101431.00
2023-04-26T15:37:26.252Z,101453.13
2023-04-26T15:40:12.124Z,101433.59
2023-04-26T15:42:57.289Z,101441.41
2023-04-26T15:45:42.470Z,101441.41
2023-04-26T15:48:27.618Z,101428.78
2023-04-26T15:51:12.813Z,101438.06
2023-04-26T15:53:57.692Z,101446.44
2023-04-26T15:56:44.302Z,101438.47
2023-04-26T15:59:30.575Z,101441.22
2023-04-26T16:02:16.099Z,101438.16
2023-04-26T16:05:02.147Z,101431.13
2023-04-26T16:07:47.426Z,101431.69
2023-04-26T16:10:32.697Z,101432.03
2023-04-26T16:13:18.330Z,101429.59
2023-04-26T16:16:07.103Z,101442.13
2023-04-26T16:18:52.235Z,101436.41
2023-04-26T16:21:39.606Z,101418.78
2023-04-26T16:24:24.887Z,101434.88
2023-04-26T16:27:10.256Z,101444.59
2023-04-26T16:29:55.596Z,101449.03
2023-04-26T16:32:40.777Z,101434.22
2023-04-26T16:35:25.824Z,101457.25
2023-04-26T16:38:10.863Z,101455.38
2023-04-26T16:41:01.328Z,101463.06
2023-04-26T16:43:46.526Z,101477.28
2023-04-26T16:46:32.359Z,101461.47
2023-04-26T16:49:17.652Z,101468.88
2023-04-26T16:52:03.805Z,101476.44
2023-04-26T16:54:49.195Z,101446.50
2023-04-26T16:57:34.649Z,101473.72
2023-04-26T17:00:20.055Z,101473.41
2023-04-26T17:03:06.406Z,101469.25
2023-04-26T17:05:51.615Z,101467.38
2023-04-26T17:08:36.855Z,101460.19
2023-04-26T17:11:22.144Z,101471.75
2023-04-26T17:14:07.361Z,101478.59
2023-04-26T17:16:52.320Z,101477.13
2023-04-26T17:19:37.477Z,101479.31
2023-04-26T17:22:22.337Z,101468.78
2023-04-26T17:25:08.791Z,101489.19
2023-04-26T17:27:54.109Z,101486.78
2023-04-26T17:30:39.091Z,101487.63
2023-04-26T17:33:25.398Z,101493.16
2023-04-26T17:36:10.714Z,101491.78
2023-04-26T17:38:56.061Z,101486.84
2023-04-26T17:41:41.063Z,101496.97
2023-04-26T17:44:26.163Z,101498.09
2023-04-26T17:47:11.265Z,101492.81
2023-04-26T17:49:56.148Z,101473.81
2023-04-26T17:52:41.815Z,101499.50
2023-04-26T17:55:27.137Z,101490.22
2023-04-26T17:58:12.470Z,101495.75
2023-04-26T18:00:57.479Z,101496.44
2023-04-26T18:03:42.646Z,101493.19
2023-04-26T18:06:28.188Z,101490.00
2023-04-26T18:09:13.337Z,101470.31
2023-04-26T18:11:58.735Z,101496.28
2023-04-26T18:14:47.064Z,101498.56
2023-04-26T18:17:32.213Z,101496.06
2023-04-26T18:20:17.312Z,101486.59
2023-04-26T18:23:02.793Z,101486.88
2023-04-26T18:25:47.847Z,101493.50
2023-04-26T18:28:32.821Z,101498.41
2023-04-26T18:31:18.078Z,101492.47
2023-04-26T18:34:03.386Z,101482.34
2023-04-26T18:36:48.570Z,101483.38
2023-04-26T18:39:33.542Z,101469.13
2023-04-26T18:42:18.755Z,101477.50
2023-04-26T18:45:05.093Z,101481.03
2023-04-26T18:47:50.330Z,101483.28
2023-04-26T18:50:36.004Z,101487.06
2023-04-26T18:53:24.244Z,101490.72
2023-04-26T18:56:09.191Z,101483.03
2023-04-26T18:58:54.220Z,101469.41
2023-04-26T19:01:39.556Z,101480.63
2023-04-26T19:04:24.922Z,101491.88
2023-04-26T19:07:10.080Z,101486.63
2023-04-26T19:10:00.819Z,101471.72
2023-04-26T19:12:46.248Z,101485.34
2023-04-26T19:15:31.357Z,101493.22
2023-04-26T19:18:17.855Z,101499.81
2023-04-26T19:21:04.664Z,101499.16
2023-04-26T19:23:50.057Z,101499.44
2023-04-26T19:26:37.224Z,101505.03
2023-04-26T19:29:22.298Z,101510.47
2023-04-26T19:32:07.819Z,101503.22
2023-04-26T19:34:53.055Z,101509.63
2023-04-26T19:37:38.043Z,101506.50
2023-04-26T19:40:22.976Z,101512.00
2023-04-26T19:43:08.113Z,101509.94
2023-04-26T19:45:53.255Z,101521.84
2023-04-26T19:48:38.489Z,101506.91
2023-04-26T19:51:23.631Z,101515.53
2023-04-26T19:54:08.670Z,101524.41
2023-04-26T19:56:53.810Z,101515.28
2023-04-26T19:59:38.890Z,101525.75
2023-04-26T20:02:24.017Z,101516.13
2023-04-26T20:05:09.416Z,101515.28
2023-04-26T20:07:54.741Z,101521.13
2023-04-26T20:10:41.582Z,101522.69
2023-04-26T20:13:26.984Z,101520.19
2023-04-26T20:16:12.823Z,101530.06
2023-04-26T20:18:58.049Z,101525.41
2023-04-26T20:21:43.170Z,101536.56
2023-04-26T20:24:28.196Z,101530.66
2023-04-26T20:27:13.353Z,101528.19
2023-04-26T20:29:58.477Z,101537.84
2023-04-26T20:32:44.167Z,101533.59
2023-04-26T20:35:29.573Z,101540.75
2023-04-26T20:38:14.454Z,101541.94
2023-04-26T20:41:00.605Z,101544.81
2023-04-26T20:43:45.788Z,101553.09
2023-04-26T20:46:32.180Z,101557.63
2023-04-26T20:49:17.650Z,101539.03
2023-04-26T20:52:02.747Z,101544.78
2023-04-26T20:54:47.878Z,101541.97
2023-04-26T20:57:32.913Z,101559.78
2023-04-26T21:00:18.424Z,101555.66
2023-04-26T21:03:04.235Z,101561.97
2023-04-26T21:05:50.063Z,101555.06
2023-04-26T21:08:36.744Z,101560.28
2023-04-26T21:11:22.185Z,101563.13
2023-04-26T21:14:07.126Z,101569.03
2023-04-26T21:16:52.222Z,101567.59
2023-04-26T21:19:37.307Z,101565.13
2023-04-26T21:22:22.693Z,101564.31
2023-04-26T21:25:08.304Z,101571.69
2023-04-26T21:27:53.541Z,101577.72
2023-04-26T21:30:38.713Z,101575.09
2023-04-26T21:33:23.700Z,101576.38
2023-04-26T21:36:09.175Z,101567.41
2023-04-26T21:38:54.394Z,101568.94
2023-04-26T21:41:40.345Z,101575.69
2023-04-26T21:44:25.704Z,101570.69
2023-04-26T21:47:10.969Z,101558.16
2023-04-26T21:49:56.145Z,101559.47
2023-04-26T21:52:41.362Z,101586.91
2023-04-26T21:55:26.911Z,101585.25
2023-04-26T21:58:12.068Z,101576.94
2023-04-26T22:01:10.405Z,101583.16
2023-04-26T22:03:55.368Z,101575.09
2023-04-26T22:06:40.626Z,101572.13
2023-04-26T22:09:25.635Z,101577.25
2023-04-26T22:12:11.148Z,101578.78
2023-04-26T22:14:56.477Z,101567.63
2023-04-26T22:17:41.669Z,101574.47
2023-04-26T22:20:26.805Z,101567.06
2023-04-26T22:23:12.022Z,101581.06
2023-04-26T22:25:59.516Z,101576.78
2023-04-26T22:28:44.808Z,101573.59
2023-04-26T22:31:29.814Z,101572.97
2023-04-26T22:34:14.780Z,101579.88
2023-04-26T22:37:13.152Z,101570.44
2023-04-26T22:40:05.685Z,101568.72
2023-04-26T22:42:51.223Z,101568.88
2023-04-26T22:45:36.462Z,101556.41
2023-04-26T22:48:21.645Z,101562.25
2023-04-26T22:51:06.998Z,101572.06
2023-04-26T22:53:52.024Z,101571.38
2023-04-26T22:56:37.408Z,101567.31
2023-04-26T22:59:22.370Z,101550.56
2023-04-26T23:02:07.557Z,101578.75
2023-04-26T23:04:52.995Z,101578.81
2023-04-26T23:07:39.561Z,101565.47
2023-04-26T23:10:24.955Z,101558.13
2023-04-26T23:13:09.994Z,101585.31
2023-04-26T23:15:54.960Z,101579.50
2023-04-26T23:18:41.983Z,101584.25
2023-04-26T23:21:28.144Z,101563.13
2023-04-26T23:24:13.116Z,101580.34
2023-04-26T23:26:57.994Z,101573.66
2023-04-26T23:29:43.284Z,101577.00
2023-04-26T23:32:28.476Z,101568.69
2023-04-26T23:35:13.877Z,101569.91
2023-04-26T23:37:59.203Z,101578.56
2023-04-26T23:40:44.669Z,101577.00
2023-04-26T23:43:30.121Z,101584.25
2023-04-26T23:46:14.976Z,101575.72
2023-04-26T23:49:00.394Z,101564.97
2023-04-26T23:51:45.647Z,101585.00
2023-04-26T23:54:31.301Z,101583.31
2023-04-26T23:57:16.642Z,101586.00
